createdAt,value
2022-09-28T00:00:01.912Z,0.00
2022-09-28T00:01:01.869Z,0.00
2022-09-28T00:02:03.192Z,0.00
2022-09-28T00:03:01.784Z,0.00
2022-09-28T00:04:01.658Z,0.00
2022-09-28T00:05:01.580Z,0.00
2022-09-28T00:06:01.617Z,0.00
2022-09-28T00:07:01.465Z,0.00
2022-09-28T00:08:01.411Z,0.00
2022-09-28T00:09:01.328Z,0.00
2022-09-28T00:10:01.359Z,0.00
2022-09-28T00:11:01.176Z,0.00
2022-09-28T00:12:01.128Z,0.00
2022-09-28T00:13:01.063Z,0.00
2022-09-28T00:14:01.773Z,0.00
2022-09-28T00:15:00.928Z,0.00
2022-09-28T00:16:00.935Z,0.00
2022-09-28T00:17:00.800Z,0.00
2022-09-28T00:18:00.727Z,0.00
2022-09-28T00:19:00.667Z,0.00
2022-09-28T00:20:00.648Z,0.00
2022-09-28T00:21:00.567Z,0.00
2022-09-28T00:22:00.481Z,0.00
2022-09-28T00:23:00.411Z,0.00
2022-09-28T00:24:00.370Z,0.00
2022-09-28T00:25:00.268Z,0.00
2022-09-28T00:26:00.972Z,0.00
2022-09-28T00:27:00.138Z,0.00
2022-09-28T00:28:00.107Z,0.00
2022-09-28T00:29:00.015Z,0.00
2022-09-28T00:29:59.969Z,0.00
2022-09-28T00:31:00.474Z,0.00
2022-09-28T00:32:00.186Z,0.00
2022-09-28T00:32:59.772Z,0.00
2022-09-28T00:33:59.707Z,0.00
2022-09-28T00:34:59.655Z,0.00
2022-09-28T00:35:59.570Z,0.00
2022-09-28T00:36:59.508Z,0.00
2022-09-28T00:37:59.723Z,0.00
2022-09-28T00:38:59.377Z,0.00
2022-09-28T00:39:59.318Z,0.00
2022-09-28T00:40:59.369Z,0.00
2022-09-28T00:41:59.210Z,0.00
2022-09-28T00:42:59.118Z,0.00
2022-09-28T00:43:59.068Z,0.00
2022-09-28T00:44:58.989Z,0.00
2022-09-28T00:45:58.992Z,0.00
2022-09-28T00:46:58.843Z,0.00
2022-09-28T00:47:58.795Z,0.00
2022-09-28T00:48:58.764Z,0.00
2022-09-28T00:49:58.662Z,0.00
2022-09-28T00:50:58.594Z,0.00
2022-09-28T00:51:58.525Z,0.00
2022-09-28T00:52:58.458Z,0.00
2022-09-28T00:53:58.413Z,0.00
2022-09-28T00:54:58.344Z,0.00
2022-09-28T00:55:58.321Z,0.00
2022-09-28T00:56:58.197Z,0.00
2022-09-28T00:57:58.170Z,0.00
2022-09-28T00:58:58.032Z,1.00
2022-09-28T00:59:58.016Z,0.00
2022-09-28T01:00:57.993Z,0.00
2022-09-28T01:01:58.739Z,0.00
2022-09-28T01:02:57.842Z,0.00
2022-09-28T01:03:57.762Z,0.00
2022-09-28T01:04:57.712Z,0.00
2022-09-28T01:05:57.633Z,0.00
2022-09-28T01:06:57.567Z,0.00
2022-09-28T01:07:58.314Z,0.00
2022-09-28T01:08:57.437Z,0.00
2022-09-28T01:09:57.377Z,0.00
2022-09-28T01:10:57.305Z,0.00
2022-09-28T01:11:57.242Z,0.00
2022-09-28T01:12:57.184Z,0.00
2022-09-28T01:13:57.884Z,0.00
2022-09-28T01:14:57.054Z,0.00
2022-09-28T01:15:57.026Z,0.00
2022-09-28T01:16:56.906Z,0.00
2022-09-28T01:17:56.877Z,0.00
2022-09-28T01:18:56.779Z,0.00
2022-09-28T01:19:57.503Z,0.00
2022-09-28T01:20:56.646Z,0.00
2022-09-28T01:21:56.594Z,0.00
2022-09-28T01:22:56.540Z,0.00
2022-09-28T01:23:56.465Z,0.00
2022-09-28T01:24:56.390Z,0.00
2022-09-28T01:25:57.114Z,0.00
2022-09-28T01:26:56.272Z,0.00
2022-09-28T01:27:56.225Z,0.00
2022-09-28T01:28:56.175Z,0.00
2022-09-28T01:29:56.074Z,0.00
2022-09-28T01:30:56.015Z,0.00
2022-09-28T01:31:56.810Z,0.00
2022-09-28T01:32:55.875Z,0.00
2022-09-28T01:33:55.803Z,0.00
2022-09-28T01:34:55.746Z,0.00
2022-09-28T01:35:55.694Z,0.00
2022-09-28T01:36:55.629Z,0.00
2022-09-28T01:37:55.585Z,0.00
2022-09-28T01:38:55.484Z,0.00
2022-09-28T01:39:55.418Z,0.00
2022-09-28T01:40:55.409Z,0.00
2022-09-28T01:41:55.299Z,0.00
2022-09-28T01:42:55.242Z,0.00
2022-09-28T01:43:55.493Z,0.00
2022-09-28T01:44:55.093Z,0.00
2022-09-28T01:45:55.109Z,0.00
2022-09-28T01:46:54.974Z,0.00
2022-09-28T01:47:54.902Z,0.00
2022-09-28T01:48:54.845Z,0.00
2022-09-28T01:49:54.796Z,0.00
2022-09-28T01:50:54.716Z,0.00
2022-09-28T01:51:54.638Z,0.00
2022-09-28T01:52:54.588Z,0.00
2022-09-28T01:53:54.527Z,0.00
2022-09-28T01:54:54.457Z,0.00
2022-09-28T01:55:54.396Z,0.00
2022-09-28T01:56:54.332Z,0.00
2022-09-28T01:57:54.265Z,0.00
2022-09-28T01:58:54.204Z,0.00
2022-09-28T01:59:54.139Z,0.00
2022-09-28T02:00:54.100Z,0.00
2022-09-28T02:01:54.825Z,0.00
2022-09-28T02:02:53.995Z,0.00
2022-09-28T02:03:53.870Z,0.00
2022-09-28T02:04:53.797Z,0.00
2022-09-28T02:05:53.788Z,0.00
2022-09-28T02:06:53.676Z,0.00
2022-09-28T02:07:53.652Z,0.00
2022-09-28T02:08:53.559Z,0.00
2022-09-28T02:09:53.473Z,0.00
2022-09-28T02:10:53.431Z,0.00
2022-09-28T02:11:53.351Z,0.00
2022-09-28T02:12:53.286Z,0.00
2022-09-28T02:13:54.766Z,0.00
2022-09-28T02:14:53.150Z,0.00
2022-09-28T02:15:53.145Z,0.00
2022-09-28T02:16:53.029Z,0.00
2022-09-28T02:17:52.972Z,0.00
2022-09-28T02:18:52.856Z,1.00
2022-09-28T02:19:53.613Z,0.00
2022-09-28T02:20:52.784Z,0.00
2022-09-28T02:21:52.717Z,0.00
2022-09-28T02:22:52.608Z,1.00
2022-09-28T02:23:52.523Z,1.00
2022-09-28T02:24:52.449Z,2.00
2022-09-28T02:25:52.401Z,1.00
2022-09-28T02:26:52.343Z,1.00
2022-09-28T02:27:52.322Z,0.00
2022-09-28T02:28:52.262Z,0.00
2022-09-28T02:29:52.198Z,0.00
2022-09-28T02:30:52.130Z,0.00
2022-09-28T02:31:53.661Z,0.00
2022-09-28T02:32:52.008Z,0.00
2022-09-28T02:33:51.937Z,0.00
2022-09-28T02:34:51.856Z,0.00
2022-09-28T02:35:51.808Z,0.00
2022-09-28T02:36:51.740Z,0.00
2022-09-28T02:37:51.689Z,0.00
2022-09-28T02:38:51.613Z,0.00
2022-09-28T02:39:51.552Z,0.00
2022-09-28T02:40:51.554Z,0.00
2022-09-28T02:41:51.380Z,1.00
2022-09-28T02:42:51.357Z,0.00
2022-09-28T02:43:52.047Z,0.00
2022-09-28T02:44:51.214Z,0.00
2022-09-28T02:45:51.217Z,0.00
2022-09-28T02:46:51.099Z,0.00
2022-09-28T02:47:51.032Z,0.00
2022-09-28T02:49:04.988Z,0.00
2022-09-28T02:49:52.194Z,0.00
2022-09-28T02:50:50.835Z,0.00
2022-09-28T02:51:50.762Z,0.00
2022-09-28T02:52:50.710Z,0.00
2022-09-28T02:53:50.644Z,0.00
2022-09-28T02:54:50.571Z,0.00
2022-09-28T02:55:52.788Z,0.00
2022-09-28T02:56:50.447Z,0.00
2022-09-28T02:57:50.386Z,0.00
2022-09-28T02:58:50.316Z,0.00
2022-09-28T02:59:50.242Z,0.00
2022-09-28T03:00:50.233Z,0.00
2022-09-28T03:01:52.601Z,0.00
2022-09-28T03:02:50.048Z,0.00
2022-09-28T03:03:49.980Z,0.00
2022-09-28T03:04:49.929Z,0.00
2022-09-28T03:05:49.811Z,1.00
2022-09-28T03:06:49.809Z,0.00
2022-09-28T03:07:49.752Z,0.00
2022-09-28T03:08:49.659Z,0.00
2022-09-28T03:09:49.609Z,0.00
2022-09-28T03:10:49.553Z,0.00
2022-09-28T03:11:49.466Z,0.00
2022-09-28T03:12:49.418Z,0.00
2022-09-28T03:13:51.680Z,0.00
2022-09-28T03:14:49.274Z,0.00
2022-09-28T03:15:49.236Z,0.00
2022-09-28T03:16:49.156Z,0.00
2022-09-28T03:17:49.078Z,0.00
2022-09-28T03:18:49.022Z,0.00
2022-09-28T03:19:48.974Z,0.00
2022-09-28T03:20:48.889Z,0.00
2022-09-28T03:21:48.837Z,0.00
2022-09-28T03:23:06.065Z,0.00
2022-09-28T03:23:48.696Z,0.00
2022-09-28T03:24:48.621Z,0.00
2022-09-28T03:25:48.579Z,0.00
2022-09-28T03:26:48.519Z,0.00
2022-09-28T03:27:48.429Z,0.00
2022-09-28T03:28:48.376Z,0.00
2022-09-28T03:29:48.316Z,0.00
2022-09-28T03:30:48.254Z,0.00
2022-09-28T03:31:51.277Z,0.00
2022-09-28T03:32:48.105Z,0.00
2022-09-28T03:33:48.040Z,0.00
2022-09-28T03:34:47.971Z,0.00
2022-09-28T03:35:47.941Z,0.00
2022-09-28T03:36:47.861Z,0.00
2022-09-28T03:37:47.824Z,0.00
2022-09-28T03:38:47.726Z,0.00
2022-09-28T03:39:47.655Z,0.00
2022-09-28T03:40:47.667Z,0.00
2022-09-28T03:41:47.520Z,0.00
2022-09-28T03:42:47.462Z,0.00
2022-09-28T03:43:47.402Z,0.00
2022-09-28T03:44:47.353Z,0.00
2022-09-28T03:45:47.319Z,0.00
2022-09-28T03:46:47.201Z,0.00
2022-09-28T03:47:47.147Z,0.00
2022-09-28T03:48:47.066Z,0.00
2022-09-28T03:49:47.876Z,0.00
2022-09-28T03:50:46.951Z,0.00
2022-09-28T03:51:46.901Z,0.00
2022-09-28T03:52:46.816Z,0.00
2022-09-28T03:53:46.742Z,0.00
2022-09-28T03:54:49.252Z,0.00
2022-09-28T03:55:48.746Z,0.00
2022-09-28T03:56:46.569Z,0.00
2022-09-28T03:57:46.502Z,0.00
2022-09-28T03:58:46.427Z,0.00
2022-09-28T03:59:46.356Z,0.00
2022-09-28T04:00:46.378Z,0.00
2022-09-28T04:01:46.283Z,0.00
2022-09-28T04:02:46.167Z,0.00
2022-09-28T04:03:46.101Z,0.00
2022-09-28T04:04:46.048Z,0.00
2022-09-28T04:05:45.933Z,1.00
2022-09-28T04:06:45.853Z,1.00
2022-09-28T04:07:45.811Z,1.00
2022-09-28T04:08:45.791Z,0.00
2022-09-28T04:09:45.738Z,0.00
2022-09-28T04:10:45.660Z,0.00
2022-09-28T04:12:02.798Z,0.00
2022-09-28T04:12:45.520Z,0.00
2022-09-28T04:13:45.470Z,0.00
2022-09-28T04:14:45.391Z,0.00
2022-09-28T04:15:45.327Z,0.00
2022-09-28T04:16:45.393Z,0.00
2022-09-28T04:17:45.208Z,0.00
2022-09-28T04:18:45.132Z,0.00
2022-09-28T04:19:46.306Z,0.00
2022-09-28T04:20:45.013Z,0.00
2022-09-28T04:21:44.933Z,0.00
2022-09-28T04:22:45.426Z,0.00
2022-09-28T04:23:44.814Z,0.00
2022-09-28T04:24:44.853Z,0.00
2022-09-28T04:25:44.735Z,0.00
2022-09-28T04:26:44.648Z,0.00
2022-09-28T04:27:44.565Z,0.00
2022-09-28T04:28:44.526Z,0.00
2022-09-28T04:29:44.425Z,0.00
2022-09-28T04:30:44.387Z,0.00
2022-09-28T04:31:44.348Z,0.00
2022-09-28T04:32:44.223Z,0.00
2022-09-28T04:33:44.120Z,1.00
2022-09-28T04:34:44.586Z,0.00
2022-09-28T04:35:44.054Z,0.00
2022-09-28T04:36:43.987Z,0.00
2022-09-28T04:37:43.916Z,0.00
2022-09-28T04:38:59.100Z,0.00
2022-09-28T04:39:48.060Z,0.00
2022-09-28T04:40:43.821Z,0.00
2022-09-28T04:41:43.646Z,0.00
2022-09-28T04:42:43.617Z,0.00
2022-09-28T04:43:43.526Z,0.00
2022-09-28T04:44:43.457Z,0.00
2022-09-28T04:45:43.434Z,0.00
2022-09-28T04:46:43.320Z,0.00
2022-09-28T04:47:43.247Z,0.00
2022-09-28T04:48:43.211Z,0.00
2022-09-28T04:49:43.946Z,0.00
2022-09-28T04:50:43.067Z,0.00
2022-09-28T04:51:42.990Z,0.00
2022-09-28T04:52:42.943Z,0.00
2022-09-28T04:53:42.861Z,0.00
2022-09-28T04:54:42.799Z,0.00
2022-09-28T04:55:42.772Z,0.00
2022-09-28T04:56:42.663Z,1.00
2022-09-28T04:57:42.562Z,1.00
2022-09-28T04:58:42.541Z,1.00
2022-09-28T04:59:42.444Z,1.00
2022-09-28T05:00:42.441Z,1.00
2022-09-28T05:01:44.372Z,1.00
2022-09-28T05:02:42.305Z,2.00
2022-09-28T05:03:42.191Z,2.00
2022-09-28T05:04:42.110Z,2.00
2022-09-28T05:05:42.046Z,3.00
2022-09-28T05:06:42.014Z,3.00
2022-09-28T05:07:41.952Z,1.00
2022-09-28T05:08:41.858Z,2.00
2022-09-28T05:09:41.801Z,2.00
2022-09-28T05:10:41.755Z,5.00
2022-09-28T05:11:41.648Z,6.00
2022-09-28T05:12:41.629Z,6.00
2022-09-28T05:13:43.856Z,6.00
2022-09-28T05:14:41.459Z,9.00
2022-09-28T05:15:41.416Z,9.00
2022-09-28T05:16:41.367Z,12.00
2022-09-28T05:17:41.298Z,13.00
2022-09-28T05:18:41.242Z,15.00
2022-09-28T05:19:41.162Z,15.00
2022-09-28T05:20:41.085Z,15.00
2022-09-28T05:21:41.010Z,17.00
2022-09-28T05:22:40.991Z,19.00
2022-09-28T05:23:40.887Z,19.00
2022-09-28T05:24:40.855Z,17.00
2022-09-28T05:25:40.766Z,19.00
2022-09-28T05:26:40.709Z,22.00
2022-09-28T05:27:40.638Z,25.00
2022-09-28T05:28:40.553Z,24.00
2022-09-28T05:29:40.500Z,23.00
2022-09-28T05:30:40.452Z,21.00
2022-09-28T05:31:40.449Z,24.00
2022-09-28T05:32:40.298Z,23.00
2022-09-28T05:33:40.237Z,18.00
2022-09-28T05:34:40.263Z,19.00
2022-09-28T05:35:40.134Z,19.00
2022-09-28T05:36:40.060Z,21.00
2022-09-28T05:37:39.976Z,24.00
2022-09-28T05:38:39.965Z,25.00
2022-09-28T05:39:40.033Z,26.00
2022-09-28T05:40:39.792Z,25.00
2022-09-28T05:41:39.718Z,20.00
2022-09-28T05:42:39.643Z,17.00
2022-09-28T05:43:39.605Z,15.00
2022-09-28T05:44:39.554Z,14.00
2022-09-28T05:45:39.531Z,17.00
2022-09-28T05:46:39.377Z,19.00
2022-09-28T05:47:39.333Z,19.00
2022-09-28T05:48:39.249Z,42.00
2022-09-28T05:49:39.956Z,53.00
2022-09-28T05:50:39.139Z,61.00
2022-09-28T05:51:39.125Z,66.00
2022-09-28T05:52:39.009Z,67.00
2022-09-28T05:53:38.942Z,74.00
2022-09-28T05:54:38.864Z,74.00
2022-09-28T05:55:38.860Z,81.00
2022-09-28T05:56:38.750Z,87.00
2022-09-28T05:57:38.667Z,92.00
2022-09-28T05:58:38.608Z,99.00
2022-09-28T05:59:38.549Z,100.00
2022-09-28T06:00:38.477Z,103.00
2022-09-28T06:01:38.525Z,119.00
2022-09-28T06:02:38.382Z,127.00
2022-09-28T06:03:38.435Z,131.00
2022-09-28T06:04:38.232Z,133.00
2022-09-28T06:05:38.151Z,141.00
2022-09-28T06:06:38.115Z,152.00
2022-09-28T06:07:38.322Z,162.00
2022-09-28T06:08:37.955Z,169.00
2022-09-28T06:09:37.890Z,166.00
2022-09-28T06:10:37.839Z,177.00
2022-09-28T06:11:37.788Z,184.00
2022-09-28T06:12:37.696Z,190.00
2022-09-28T06:13:37.677Z,229.00
2022-09-28T06:14:37.568Z,245.00
2022-09-28T06:15:37.519Z,235.00
2022-09-28T06:16:43.011Z,221.00
2022-09-28T06:17:37.388Z,211.00
2022-09-28T06:18:37.323Z,201.00
2022-09-28T06:19:38.791Z,199.00
2022-09-28T06:20:37.179Z,213.00
2022-09-28T06:21:37.114Z,209.00
2022-09-28T06:22:37.064Z,221.00
2022-09-28T06:23:37.012Z,216.00
2022-09-28T06:24:36.938Z,259.00
2022-09-28T06:25:36.872Z,297.00
2022-09-28T06:26:36.790Z,355.00
2022-09-28T06:27:36.732Z,428.00
2022-09-28T06:28:36.665Z,494.00
2022-09-28T06:29:36.599Z,559.00
2022-09-28T06:30:36.574Z,581.00
2022-09-28T06:31:38.024Z,601.00
2022-09-28T06:32:36.403Z,692.00
2022-09-28T06:33:36.359Z,733.00
2022-09-28T06:34:36.294Z,747.00
2022-09-28T06:35:36.220Z,736.00
2022-09-28T06:36:36.163Z,727.00
2022-09-28T06:37:36.862Z,764.00
2022-09-28T06:38:36.019Z,836.00
2022-09-28T06:39:35.965Z,907.00
2022-09-28T06:40:35.960Z,966.00
2022-09-28T06:41:35.823Z,1059.00
2022-09-28T06:42:35.764Z,1181.00
2022-09-28T06:43:36.512Z,1325.00
2022-09-28T06:44:35.629Z,522.00
2022-09-28T06:45:35.579Z,2625.00
2022-09-28T06:46:35.567Z,1525.00
2022-09-28T06:47:35.444Z,1570.00
2022-09-28T06:48:35.390Z,896.00
2022-09-28T06:49:36.087Z,1328.00
2022-09-28T06:50:35.242Z,3795.00
2022-09-28T06:51:35.188Z,2968.00
2022-09-28T06:52:35.132Z,1756.00
2022-09-28T06:53:35.064Z,1963.00
2022-09-28T06:54:34.983Z,1692.00
2022-09-28T06:55:34.940Z,1526.00
2022-09-28T06:56:34.874Z,1589.00
2022-09-28T06:57:34.801Z,3849.00
2022-09-28T06:58:34.761Z,787.00
2022-09-28T06:59:34.662Z,2833.00
2022-09-28T07:00:34.608Z,1333.00
2022-09-28T07:01:34.620Z,1242.00
2022-09-28T07:02:34.577Z,1274.00
2022-09-28T07:03:34.409Z,1285.00
2022-09-28T07:04:34.339Z,1056.00
2022-09-28T07:05:34.268Z,910.00
2022-09-28T07:06:34.217Z,838.00
2022-09-28T07:07:34.178Z,786.00
2022-09-28T07:08:34.079Z,747.00
2022-09-28T07:09:36.934Z,723.00
2022-09-28T07:10:33.959Z,786.00
2022-09-28T07:11:33.902Z,1183.00
2022-09-28T07:12:33.822Z,1143.00
2022-09-28T07:13:53.951Z,1047.00
2022-09-28T07:14:46.705Z,962.00
2022-09-28T07:15:33.628Z,788.00
2022-09-28T07:16:58.770Z,1091.00
2022-09-28T07:17:35.538Z,882.00
2022-09-28T07:18:33.460Z,855.00
2022-09-28T07:19:33.405Z,791.00
2022-09-28T07:20:37.987Z,618.00
2022-09-28T07:21:33.259Z,956.00
2022-09-28T07:22:41.948Z,995.00
2022-09-28T07:23:36.661Z,787.00
2022-09-28T07:24:33.072Z,770.00
2022-09-28T07:25:33.810Z,991.00
2022-09-28T07:26:32.935Z,1277.00
2022-09-28T07:27:32.852Z,1290.00
2022-09-28T07:28:32.829Z,1592.00
2022-09-28T07:29:32.718Z,1605.00
2022-09-28T07:30:32.760Z,1299.00
2022-09-28T07:31:34.908Z,963.00
2022-09-28T07:32:32.558Z,1067.00
2022-09-28T07:33:32.493Z,1003.00
2022-09-28T07:34:32.438Z,1071.00
2022-09-28T07:35:32.349Z,1309.00
2022-09-28T07:36:32.305Z,1336.00
2022-09-28T07:37:32.331Z,1707.00
2022-09-28T07:38:32.180Z,2284.00
2022-09-28T07:39:32.072Z,1817.00
2022-09-28T07:40:32.178Z,2512.00
2022-09-28T07:41:31.948Z,1544.00
2022-09-28T07:42:31.948Z,1275.00
2022-09-28T07:43:31.847Z,1250.00
2022-09-28T07:44:31.779Z,1500.00
2022-09-28T07:45:31.784Z,1803.00
2022-09-28T07:46:31.634Z,2023.00
2022-09-28T07:47:35.081Z,2036.00
2022-09-28T07:48:31.508Z,2071.00
2022-09-28T07:49:31.465Z,1922.00
2022-09-28T07:50:31.381Z,2334.00
2022-09-28T07:51:31.299Z,2218.00
2022-09-28T07:52:31.240Z,2056.00
2022-09-28T07:53:31.195Z,2157.00
2022-09-28T07:54:31.128Z,2270.00
2022-09-28T07:55:31.080Z,2174.00
2022-09-28T07:56:30.980Z,1724.00
2022-09-28T07:57:30.913Z,2014.00
2022-09-28T07:58:30.866Z,2052.00
2022-09-28T07:59:30.789Z,2030.00
2022-09-28T08:00:33.972Z,1934.00
2022-09-28T08:01:31.251Z,1617.00
2022-09-28T08:02:30.643Z,1395.00
2022-09-28T08:03:30.541Z,1217.00
2022-09-28T08:04:30.482Z,1120.00
2022-09-28T08:05:30.396Z,1041.00
2022-09-28T08:06:30.330Z,958.00
2022-09-28T08:07:30.285Z,993.00
2022-09-28T08:08:30.218Z,939.00
2022-09-28T08:09:30.145Z,900.00
2022-09-28T08:10:30.078Z,755.00
2022-09-28T08:11:30.019Z,666.00
2022-09-28T08:12:29.963Z,628.00
2022-09-28T08:13:32.304Z,581.00
2022-09-28T08:14:29.839Z,525.00
2022-09-28T08:15:29.772Z,552.00
2022-09-28T08:16:29.812Z,627.00
2022-09-28T08:17:29.625Z,571.00
2022-09-28T08:18:29.563Z,618.00
2022-09-28T08:19:29.787Z,684.00
2022-09-28T08:20:29.470Z,772.00
2022-09-28T08:21:29.375Z,1373.00
2022-09-28T08:22:29.301Z,1903.00
2022-09-28T08:23:29.241Z,1728.00
2022-09-28T08:24:29.172Z,1796.00
2022-09-28T08:25:29.129Z,1760.00
2022-09-28T08:26:29.063Z,1822.00
2022-09-28T08:27:29.021Z,2111.00
2022-09-28T08:28:28.934Z,1954.00
2022-09-28T08:29:28.864Z,2225.00
2022-09-28T08:30:28.864Z,2596.00
2022-09-28T08:31:28.802Z,3249.00
2022-09-28T08:32:28.671Z,2749.00
2022-09-28T08:33:28.624Z,3161.00
2022-09-28T08:34:28.529Z,2635.00
2022-09-28T08:35:28.462Z,4711.00
2022-09-28T08:36:28.413Z,3703.00
2022-09-28T08:37:30.638Z,2758.00
2022-09-28T08:38:28.291Z,2432.00
2022-09-28T08:39:28.221Z,2532.00
2022-09-28T08:40:28.225Z,2297.00
2022-09-28T08:41:28.089Z,2095.00
2022-09-28T08:42:28.083Z,2308.00
2022-09-28T08:43:27.991Z,2147.00
2022-09-28T08:44:27.901Z,1801.00
2022-09-28T08:45:27.832Z,1797.00
2022-09-28T08:46:27.799Z,1605.00
2022-09-28T08:47:27.692Z,1401.00
2022-09-28T08:48:27.624Z,2142.00
2022-09-28T08:49:27.643Z,2055.00
2022-09-28T08:50:27.494Z,1725.00
2022-09-28T08:51:27.431Z,1377.00
2022-09-28T08:52:27.363Z,1259.00
2022-09-28T08:53:27.313Z,1834.00
2022-09-28T08:54:27.252Z,2301.00
2022-09-28T08:55:30.246Z,1590.00
2022-09-28T08:56:27.124Z,2734.00
2022-09-28T08:57:27.059Z,1765.00
2022-09-28T08:58:27.002Z,1942.00
2022-09-28T08:59:26.918Z,4383.00
2022-09-28T09:00:26.862Z,3769.00
2022-09-28T09:01:29.901Z,3619.00
2022-09-28T09:02:26.772Z,3494.00
2022-09-28T09:03:26.666Z,3390.00
2022-09-28T09:04:26.635Z,5566.00
2022-09-28T09:05:26.526Z,3679.00
2022-09-28T09:06:26.479Z,4346.00
2022-09-28T09:07:26.415Z,3345.00
2022-09-28T09:08:26.338Z,1843.00
2022-09-28T09:09:26.287Z,1305.00
2022-09-28T09:10:26.207Z,2748.00
2022-09-28T09:11:26.167Z,3444.00
2022-09-28T09:12:26.128Z,3790.00
2022-09-28T09:13:27.225Z,2848.00
2022-09-28T09:14:25.977Z,2902.00
2022-09-28T09:15:25.902Z,2609.00
2022-09-28T09:16:25.856Z,2811.00
2022-09-28T09:17:25.773Z,2577.00
2022-09-28T09:18:25.722Z,2771.00
2022-09-28T09:19:25.632Z,2678.00
2022-09-28T09:20:25.597Z,2352.00
2022-09-28T09:21:25.511Z,1974.00
2022-09-28T09:22:25.442Z,1643.00
2022-09-28T09:23:25.367Z,1681.00
2022-09-28T09:24:25.304Z,1693.00
2022-09-28T09:25:25.545Z,1608.00
2022-09-28T09:26:26.252Z,1312.00
2022-09-28T09:27:25.122Z,1637.00
2022-09-28T09:28:25.052Z,2219.00
2022-09-28T09:29:24.988Z,1203.00
2022-09-28T09:30:27.006Z,2013.00
2022-09-28T09:31:24.912Z,2953.00
2022-09-28T09:32:24.814Z,2957.00
2022-09-28T09:33:24.739Z,2331.00
2022-09-28T09:34:24.659Z,3507.00
2022-09-28T09:35:28.542Z,2967.00
2022-09-28T09:36:24.534Z,5060.00
2022-09-28T09:37:24.490Z,4820.00
2022-09-28T09:38:24.470Z,3648.00
2022-09-28T09:39:24.331Z,2631.00
2022-09-28T09:40:24.317Z,1798.00
2022-09-28T09:41:24.209Z,1281.00
2022-09-28T09:42:24.142Z,955.00
2022-09-28T09:43:28.077Z,902.00
2022-09-28T09:44:24.045Z,1047.00
2022-09-28T09:45:23.950Z,1183.00
2022-09-28T09:46:23.968Z,1115.00
2022-09-28T09:47:23.838Z,900.00
2022-09-28T09:48:23.757Z,766.00
2022-09-28T09:49:23.827Z,684.00
2022-09-28T09:50:23.630Z,607.00
2022-09-28T09:51:23.558Z,455.00
2022-09-28T09:52:23.554Z,438.00
2022-09-28T09:53:23.462Z,405.00
2022-09-28T09:54:23.382Z,428.00
2022-09-28T09:55:29.010Z,539.00
2022-09-28T09:56:23.263Z,698.00
2022-09-28T09:57:23.196Z,838.00
2022-09-28T09:58:23.132Z,960.00
2022-09-28T09:59:23.075Z,1104.00
2022-09-28T10:00:22.985Z,1112.00
2022-09-28T10:01:22.958Z,1100.00
2022-09-28T10:02:22.921Z,1010.00
2022-09-28T10:03:22.808Z,986.00
2022-09-28T10:04:22.740Z,933.00
2022-09-28T10:05:22.681Z,790.00
2022-09-28T10:06:22.593Z,745.00
2022-09-28T10:07:22.564Z,644.00
2022-09-28T10:08:22.485Z,618.00
2022-09-28T10:09:22.432Z,795.00
2022-09-28T10:10:22.768Z,940.00
2022-09-28T10:11:22.950Z,936.00
2022-09-28T10:12:22.210Z,2132.00
2022-09-28T10:13:22.246Z,1792.00
2022-09-28T10:14:22.124Z,1545.00
2022-09-28T10:15:22.029Z,1863.00
2022-09-28T10:16:21.974Z,3954.00
2022-09-28T10:17:21.906Z,4060.00
2022-09-28T10:18:21.840Z,5149.00
2022-09-28T10:19:21.796Z,4195.00
2022-09-28T10:20:21.700Z,3448.00
2022-09-28T10:21:21.645Z,3349.00
2022-09-28T10:22:21.601Z,3064.00
2022-09-28T10:23:21.503Z,2830.00
2022-09-28T10:24:21.459Z,2670.00
2022-09-28T10:25:21.397Z,2603.00
2022-09-28T10:26:24.788Z,2652.00
2022-09-28T10:27:21.283Z,2561.00
2022-09-28T10:28:21.180Z,2252.00
2022-09-28T10:29:21.131Z,2045.00
2022-09-28T10:30:21.060Z,1998.00
2022-09-28T10:31:21.046Z,1899.00
2022-09-28T10:32:20.934Z,1895.00
2022-09-28T10:33:20.872Z,1835.00
2022-09-28T10:34:20.796Z,1794.00
2022-09-28T10:35:20.726Z,1811.00
2022-09-28T10:36:20.682Z,1985.00
2022-09-28T10:37:20.705Z,2168.00
2022-09-28T10:38:20.542Z,2605.00
2022-09-28T10:39:20.470Z,2572.00
2022-09-28T10:40:20.471Z,2032.00
2022-09-28T10:41:20.360Z,1743.00
2022-09-28T10:42:20.288Z,1409.00
2022-09-28T10:43:21.048Z,1261.00
2022-09-28T10:44:20.171Z,1470.00
2022-09-28T10:45:20.111Z,1609.00
2022-09-28T10:46:20.111Z,1510.00
2022-09-28T10:47:20.000Z,1310.00
2022-09-28T10:48:19.908Z,1249.00
2022-09-28T10:49:19.834Z,1295.00
2022-09-28T10:50:19.784Z,1214.00
2022-09-28T10:51:19.714Z,1206.00
2022-09-28T10:52:19.629Z,1293.00
2022-09-28T10:53:19.585Z,1417.00
2022-09-28T10:54:19.762Z,1654.00
2022-09-28T10:55:19.464Z,1809.00
2022-09-28T10:56:19.391Z,1899.00
2022-09-28T10:57:19.319Z,2111.00
2022-09-28T10:58:19.246Z,2495.00
2022-09-28T10:59:19.192Z,2512.00
2022-09-28T11:00:19.120Z,2429.00
2022-09-28T11:01:19.124Z,2650.00
2022-09-28T11:02:19.033Z,2801.00
2022-09-28T11:03:19.023Z,2762.00
2022-09-28T11:04:19.019Z,2786.00
2022-09-28T11:05:19.369Z,2817.00
2022-09-28T11:06:18.754Z,2856.00
2022-09-28T11:07:19.878Z,2581.00
2022-09-28T11:08:18.624Z,2622.00
2022-09-28T11:09:18.596Z,2848.00
2022-09-28T11:10:18.512Z,2329.00
2022-09-28T11:11:18.439Z,2359.00
2022-09-28T11:12:18.360Z,2452.00
2022-09-28T11:13:18.315Z,2398.00
2022-09-28T11:14:18.265Z,2399.00
2022-09-28T11:15:18.149Z,2212.00
2022-09-28T11:16:18.156Z,2244.00
2022-09-28T11:17:18.038Z,2070.00
2022-09-28T11:18:17.958Z,2030.00
2022-09-28T11:19:18.040Z,2218.00
2022-09-28T11:20:17.847Z,1993.00
2022-09-28T11:21:17.765Z,1489.00
2022-09-28T11:22:17.703Z,1601.00
2022-09-28T11:23:17.641Z,1676.00
2022-09-28T11:24:19.270Z,1692.00
2022-09-28T11:25:19.912Z,1833.00
2022-09-28T11:26:18.805Z,2330.00
2022-09-28T11:27:17.394Z,2617.00
2022-09-28T11:28:17.314Z,2482.00
2022-09-28T11:29:17.273Z,2292.00
2022-09-28T11:30:17.229Z,2075.00
2022-09-28T11:31:17.215Z,1851.00
2022-09-28T11:32:17.059Z,1927.00
2022-09-28T11:33:17.005Z,1939.00
2022-09-28T11:34:17.088Z,1770.00
2022-09-28T11:35:17.014Z,1831.00
2022-09-28T11:36:16.821Z,1925.00
2022-09-28T11:37:16.764Z,2209.00
2022-09-28T11:38:16.670Z,2063.00
2022-09-28T11:39:16.610Z,1918.00
2022-09-28T11:40:16.688Z,2711.00
2022-09-28T11:41:16.481Z,2889.00
2022-09-28T11:42:16.728Z,2836.00
2022-09-28T11:43:16.945Z,2648.00
2022-09-28T11:44:16.294Z,2349.00
2022-09-28T11:45:16.224Z,2106.00
2022-09-28T11:46:16.282Z,2265.00
2022-09-28T11:47:16.119Z,2636.00
2022-09-28T11:48:16.021Z,3203.00
2022-09-28T11:49:15.999Z,3095.00
2022-09-28T11:50:18.958Z,3227.00
2022-09-28T11:51:15.872Z,3512.00
2022-09-28T11:52:15.770Z,2941.00
2022-09-28T11:53:15.710Z,3850.00
2022-09-28T11:54:15.791Z,3590.00
2022-09-28T11:55:15.586Z,2479.00
2022-09-28T11:56:15.521Z,2768.00
2022-09-28T11:57:15.448Z,2685.00
2022-09-28T11:58:15.398Z,4388.00
2022-09-28T11:59:15.328Z,3823.00
2022-09-28T12:00:15.317Z,3020.00
2022-09-28T12:01:18.907Z,2101.00
2022-09-28T12:02:15.211Z,1448.00
2022-09-28T12:03:15.138Z,1027.00
2022-09-28T12:04:14.993Z,1049.00
2022-09-28T12:05:20.483Z,1099.00
2022-09-28T12:06:14.874Z,1334.00
2022-09-28T12:07:16.345Z,1158.00
2022-09-28T12:08:14.744Z,997.00
2022-09-28T12:09:14.739Z,2675.00
2022-09-28T12:10:14.679Z,1728.00
2022-09-28T12:11:14.539Z,2028.00
2022-09-28T12:12:14.486Z,2121.00
2022-09-28T12:13:14.443Z,2026.00
2022-09-28T12:14:14.397Z,1662.00
2022-09-28T12:15:14.293Z,1266.00
2022-09-28T12:17:19.241Z,833.00
2022-09-28T12:18:14.204Z,826.00
2022-09-28T12:19:14.089Z,785.00
2022-09-28T12:20:14.025Z,951.00
2022-09-28T12:21:13.895Z,1156.00
2022-09-28T12:22:13.829Z,1541.00
2022-09-28T12:23:13.778Z,1523.00
2022-09-28T12:24:13.718Z,1674.00
2022-09-28T12:25:16.059Z,1459.00
2022-09-28T12:26:13.595Z,1628.00
2022-09-28T12:27:13.505Z,1972.00
2022-09-28T12:28:13.460Z,2299.00
2022-09-28T12:29:13.477Z,2258.00
2022-09-28T12:30:13.419Z,2083.00
2022-09-28T12:31:13.331Z,1801.00
2022-09-28T12:32:13.216Z,1508.00
2022-09-28T12:33:13.129Z,1348.00
2022-09-28T12:34:13.063Z,1072.00
2022-09-28T12:35:13.001Z,1966.00
2022-09-28T12:36:12.950Z,1796.00
2022-09-28T12:37:12.913Z,2060.00
2022-09-28T12:38:12.811Z,2643.00
2022-09-28T12:39:30.938Z,2611.00
2022-09-28T12:40:12.724Z,2214.00